Ana Sayfa
METAR-TAF:

METAR-TAF

Havaalanları :

Guangzhou Baiyun Uluslararası Havalimanı

Guangzhou, Çin

Enlem: 23-10N, Boylam: 113-20E, yükseklik: 8 m

Güncel hava durumu gözlemi

Rapor saat 14:30 UTC de 29 dakika önce yapıldı.
Rüzgar güneybatıdan 6 kt
Sıcaklık 33°C
Nem 67%
Basınç 995 hPa
Görüş mesafesi 10 km veya daha fazla
1500 m altında bulut yok ve kümülonimbus yok

METAR: ZGGG 241430Z 23003MPS CAVOK 33/26 Q0995 NOSIG

Saat: 22:59 (14:59 UTC)

Tahmin

Rapor saat 09:07 UTC de 5 saat ve 52 dakika önce yapıldı.
Ayın 24'si saat 12 UTC'den ayın 25'si saat 12 UTC'ye kadar geçerli Tahmin
Rüzgar batı/güneybatıdan 8 kt
Görüş mesafesi: 8000 m
4000 ft yükseklikte parçalı bulutlu

TAF: ZGGG 240907Z 2412/2512 24004MPS 8000 SCT040 TX37/2507Z TN28/2422Z

4.000'den fazla havaalanı için hava durumu gözlemleri ve tahminleri (METAR ve TAF raporları).

Kullanılabilir istasyonlar harita üzerinde sarı ve kırmızı noktalarla gösterilir.

İstasyonun adını görmek için fareyi noktanın üzerinde gezdirin.

Sonrasında hava gözlem ve tahminlerini görmek için tıklayın.

Haritayı değiştirmek için: yaklaştırmak için siyah artı işaretli yeşil düğmeye ve uzaklaştırmak için de eksi işaretli düğmeye hızla tıklayın; bitişik haritalar için yeşil okları kullanın.


METAR-TAF: